Time;durP1;ratioP1;P1;durP2;ratioP2;P2;SDS_P1;SDS_P2;PMS_P1;PMS_P2;Temp;Humidity;BMP_temperature;BMP_pressure;BME280_temperature;BME280_humidity;BME280_pressure;Samples;Min_cycle;Max_cycle;Signal;HPM_P1;HPM_P2
2022/10/14 00:00:20;;;;;;;12.00;7.90;;;13.30;99.90;;;;;;5049365;28;20544;-81
2022/10/14 00:02:46;;;;;;;16.33;8.05;;;13.20;99.90;;;;;;5051356;28;20493;-81
2022/10/14 00:05:11;;;;;;;12.55;6.75;;;13.20;99.90;;;;;;5049135;28;20029;-81
2022/10/14 00:07:37;;;;;;;12.32;6.53;;;13.30;99.90;;;;;;5047850;28;20045;-81
2022/10/14 00:10:05;;;;;;;17.25;6.78;;;13.30;99.90;;;;;;5047169;28;20057;-81
2022/10/14 00:12:31;;;;;;;12.25;7.05;;;13.30;99.90;;;;;;5059091;28;20057;-81
2022/10/14 00:14:57;;;;;;;11.07;6.68;;;13.20;99.90;;;;;;5045908;28;20029;-80
2022/10/14 00:17:23;;;;;;;12.95;6.68;;;13.30;99.90;;;;;;5044118;28;20029;-80
2022/10/14 00:19:48;;;;;;;13.18;6.95;;;13.30;99.90;;;;;;5047839;28;20033;-81
2022/10/14 00:22:14;;;;;;;11.60;6.72;;;13.30;99.90;;;;;;5064785;28;20075;-81
2022/10/14 00:24:39;;;;;;;11.48;6.00;;;13.30;99.90;;;;;;5045687;28;20040;-81
2022/10/14 00:27:05;;;;;;;13.25;6.97;;;13.30;99.90;;;;;;5063510;28;20024;-80
2022/10/14 00:29:31;;;;;;;12.32;6.65;;;13.30;99.90;;;;;;5043515;28;20037;-81
2022/10/14 00:31:57;;;;;;;11.02;6.03;;;13.30;99.90;;;;;;5047035;28;20040;-80
2022/10/14 00:34:22;;;;;;;11.73;6.40;;;13.30;99.90;;;;;;5043802;28;20593;-80
2022/10/14 00:36:48;;;;;;;10.68;5.53;;;13.30;99.90;;;;;;5042412;28;20056;-80
2022/10/14 00:39:14;;;;;;;12.27;6.13;;;13.30;99.90;;;;;;5047929;28;20505;-81
2022/10/14 00:41:40;;;;;;;12.30;5.97;;;13.30;99.90;;;;;;5047778;28;20033;-81
2022/10/14 00:44:25;;;;;;;21.08;6.43;;;13.30;99.90;;;;;;5045954;28;20035;-80
2022/10/14 00:46:51;;;;;;;11.35;6.25;;;13.30;99.90;;;;;;5044003;28;20123;-81
2022/10/14 00:49:43;;;;;;;12.90;6.00;;;13.30;99.90;;;;;;5046820;28;20108;-81
2022/10/14 00:52:21;;;;;;;15.35;6.45;;;13.30;99.90;;;;;;5041654;28;20033;-80
2022/10/14 00:54:55;;;;;;;13.48;5.93;;;13.30;99.90;;;;;;5047731;28;20051;-80
2022/10/14 00:57:22;;;;;;;10.35;5.90;;;13.30;99.90;;;;;;5043193;28;20102;-81
2022/10/14 00:59:48;;;;;;;12.10;5.40;;;13.30;99.90;;;;;;5061421;28;20032;-80
2022/10/14 01:02:13;;;;;;;9.55;5.07;;;13.30;99.90;;;;;;5045568;28;20029;-80
2022/10/14 01:04:41;;;;;;;13.38;5.53;;;13.30;99.90;;;;;;5062887;28;20124;-81
2022/10/14 01:07:30;;;;;;;8.75;5.75;;;13.30;99.90;;;;;;5047946;28;20481;-80
2022/10/14 01:10:39;;;;;;;13.35;6.32;;;13.30;99.90;;;;;;5044358;28;20033;-81
2022/10/14 01:13:11;;;;;;;11.70;5.88;;;13.30;99.90;;;;;;5044515;28;20493;-81
2022/10/14 01:16:01;;;;;;;13.02;6.28;;;13.30;99.90;;;;;;5045823;28;21289;-80
2022/10/14 01:18:42;;;;;;;10.88;5.28;;;13.30;99.90;;;;;;5048393;28;20079;-80
2022/10/14 01:21:17;;;;;;;16.77;5.53;;;13.30;99.90;;;;;;5046263;28;20432;-81
2022/10/14 01:24:05;;;;;;;14.07;5.72;;;13.30;99.90;;;;;;5043102;28;20059;-80
2022/10/14 01:26:55;;;;;;;11.20;5.20;;;13.30;99.90;;;;;;5042199;28;20028;-80
2022/10/14 01:29:58;;;;;;;12.93;5.45;;;13.30;99.90;;;;;;5043264;28;20153;-80
2022/10/14 01:32:44;;;;;;;11.43;5.10;;;13.30;99.90;;;;;;5043630;28;20036;-80
2022/10/14 01:35:45;;;;;;;9.40;5.32;;;13.30;99.90;;;;;;5047083;28;20123;-81
2022/10/14 01:38:31;;;;;;;14.00;5.63;;;13.30;99.90;;;;;;5044386;28;20041;-81
2022/10/14 01:41:09;;;;;;;10.75;5.28;;;13.30;99.90;;;;;;5046000;28;20449;-80
2022/10/14 01:43:36;;;;;;;13.60;5.15;;;13.30;99.90;;;;;;5044032;28;20516;-81
2022/10/14 01:46:05;;;;;;;8.38;4.80;;;13.30;99.90;;;;;;5045108;28;20039;-80
2022/10/14 01:48:33;;;;;;;10.68;5.35;;;13.30;99.90;;;;;;5046003;28;20024;-80
2022/10/14 01:51:01;;;;;;;10.00;5.05;;;13.30;99.90;;;;;;5061859;28;20033;-81
2022/10/14 01:53:38;;;;;;;9.77;4.60;;;13.30;99.90;;;;;;5048255;28;20017;-80
2022/10/14 01:56:06;;;;;;;9.15;4.90;;;13.30;99.90;;;;;;5043165;28;20040;-79
2022/10/14 01:58:33;;;;;;;9.50;5.03;;;13.30;99.90;;;;;;5045189;28;20025;-81
2022/10/14 02:01:02;;;;;;;6.45;4.35;;;13.30;99.90;;;;;;5061306;28;20046;-81
2022/10/14 02:03:41;;;;;;;10.60;5.05;;;13.30;99.90;;;;;;5045312;28;20037;-81
2022/10/14 02:06:13;;;;;;;12.27;5.53;;;13.30;99.90;;;;;;5043718;28;20052;-81
2022/10/14 02:08:59;;;;;;;9.73;5.28;;;13.30;99.90;;;;;;5060521;28;21025;-81
2022/10/14 02:11:27;;;;;;;11.25;6.18;;;13.30;99.90;;;;;;5044708;28;20033;-80
2022/10/14 02:14:26;;;;;;;10.90;4.68;;;13.30;99.90;;;;;;5044442;28;20052;-80
2022/10/14 02:17:07;;;;;;;9.55;5.28;;;13.40;99.90;;;;;;5045597;28;20028;-80
2022/10/14 02:19:47;;;;;;;6.68;4.40;;;13.40;99.90;;;;;;5046779;28;20082;-80
2022/10/14 02:22:18;;;;;;;14.85;5.20;;;13.40;99.90;;;;;;5046266;28;20025;-81
2022/10/14 02:24:48;;;;;;;10.90;5.25;;;13.40;99.90;;;;;;5044011;28;20036;-80
2022/10/14 02:27:17;;;;;;;12.27;5.70;;;13.40;99.90;;;;;;5044397;28;20032;-80
2022/10/14 02:29:46;;;;;;;8.77;5.07;;;13.30;99.90;;;;;;5047093;28;20017;-80
2022/10/14 02:32:15;;;;;;;16.67;5.35;;;13.40;99.90;;;;;;5042151;28;20453;-80
2022/10/14 02:34:46;;;;;;;8.60;5.47;;;13.40;99.90;;;;;;5045902;28;20039;-81
2022/10/14 02:37:15;;;;;;;12.23;5.95;;;13.40;99.90;;;;;;5044023;28;20025;-81
2022/10/14 02:39:46;;;;;;;11.38;5.13;;;13.40;99.90;;;;;;5042253;28;20033;-81
2022/10/14 02:42:12;;;;;;;9.43;4.68;;;13.40;99.90;;;;;;5045215;28;20459;-81
2022/10/14 02:44:50;;;;;;;8.48;5.60;;;13.40;99.90;;;;;;5043699;28;20047;-80
2022/10/14 02:47:15;;;;;;;10.88;5.00;;;13.40;99.90;;;;;;5044847;28;20370;-80
2022/10/14 02:49:41;;;;;;;8.88;4.93;;;13.40;99.90;;;;;;5059218;28;20159;-81
2022/10/14 02:52:06;;;;;;;7.72;5.43;;;13.30;99.90;;;;;;5046958;28;20029;-81
2022/10/14 02:54:32;;;;;;;9.38;5.53;;;13.30;99.90;;;;;;5047221;28;20485;-81
2022/10/14 02:56:57;;;;;;;9.13;5.65;;;13.30;99.90;;;;;;5042382;28;20048;-82
2022/10/14 02:59:23;;;;;;;10.60;5.32;;;13.30;99.90;;;;;;5051378;28;20496;-81
2022/10/14 03:01:49;;;;;;;7.18;4.80;;;13.30;99.90;;;;;;5047757;28;20036;-81
2022/10/14 03:04:15;;;;;;;9.52;5.50;;;13.30;99.90;;;;;;5047680;28;20029;-81
2022/10/14 03:06:40;;;;;;;12.52;5.15;;;13.30;99.90;;;;;;5047701;28;20567;-81
2022/10/14 03:09:06;;;;;;;12.10;5.18;;;13.30;99.90;;;;;;5052099;28;20111;-81
2022/10/14 03:11:31;;;;;;;8.68;5.22;;;13.30;99.90;;;;;;5047177;28;21138;-81
2022/10/14 03:13:57;;;;;;;12.52;5.47;;;13.30;99.90;;;;;;5048034;28;20021;-81
2022/10/14 03:16:23;;;;;;;13.20;5.53;;;13.30;99.90;;;;;;5047325;28;20076;-81
2022/10/14 03:18:48;;;;;;;12.10;5.47;;;13.30;99.90;;;;;;5047966;28;20473;-80
2022/10/14 03:21:14;;;;;;;10.13;5.18;;;13.30;99.90;;;;;;5047495;28;20040;-81
2022/10/14 03:23:39;;;;;;;13.88;5.07;;;13.30;99.90;;;;;;5047804;28;20235;-80
2022/10/14 03:26:05;;;;;;;9.70;5.10;;;13.30;99.90;;;;;;5047947;28;20031;-81
2022/10/14 03:28:31;;;;;;;8.23;5.55;;;13.30;99.90;;;;;;5049398;28;20028;-81
2022/10/14 03:30:56;;;;;;;9.80;5.20;;;13.30;99.90;;;;;;5047714;28;20020;-80
2022/10/14 03:33:22;;;;;;;8.68;5.32;;;13.30;99.90;;;;;;5050114;28;20397;-81
2022/10/14 03:35:47;;;;;;;12.30;4.72;;;13.30;99.90;;;;;;5044941;28;20036;-81
2022/10/14 03:38:13;;;;;;;11.20;5.50;;;13.30;99.90;;;;;;5045956;28;20039;-81
2022/10/14 03:40:39;;;;;;;12.98;4.90;;;13.30;99.90;;;;;;5046513;28;20032;-80
2022/10/14 03:43:04;;;;;;;7.43;4.85;;;13.30;99.90;;;;;;5051037;28;20128;-80
2022/10/14 03:45:30;;;;;;;8.75;4.68;;;13.30;99.90;;;;;;5048474;28;20551;-81
2022/10/14 03:47:56;;;;;;;9.20;5.05;;;13.30;99.90;;;;;;5047341;28;20111;-80
2022/10/14 03:50:21;;;;;;;8.30;5.72;;;13.30;99.90;;;;;;5048009;28;20477;-80
2022/10/14 03:52:47;;;;;;;8.95;4.85;;;13.30;99.90;;;;;;5048686;28;20361;-80
2022/10/14 03:55:12;;;;;;;13.38;5.30;;;13.40;99.90;;;;;;5048065;28;20029;-80
2022/10/14 03:57:38;;;;;;;10.68;4.93;;;13.30;99.90;;;;;;5043285;28;20040;-80
2022/10/14 04:00:05;;;;;;;9.25;5.15;;;13.30;99.90;;;;;;5048587;28;20126;-80
2022/10/14 04:02:31;;;;;;;10.82;5.18;;;13.30;99.90;;;;;;5045721;28;20251;-80
2022/10/14 04:04:56;;;;;;;10.60;5.45;;;13.30;99.90;;;;;;5048118;28;20029;-79
2022/10/14 04:07:22;;;;;;;9.82;4.95;;;13.30;99.90;;;;;;5047998;28;20477;-80
2022/10/14 04:09:47;;;;;;;10.65;4.85;;;13.30;99.90;;;;;;5044787;28;20547;-80
2022/10/14 04:12:13;;;;;;;9.30;4.10;;;13.30;99.90;;;;;;5047795;28;20035;-81
2022/10/14 04:14:39;;;;;;;8.02;4.55;;;13.30;99.90;;;;;;5049222;28;20025;-88
2022/10/14 04:17:04;;;;;;;6.22;4.13;;;13.30;99.90;;;;;;5050030;28;20029;-87
2022/10/14 04:19:30;;;;;;;9.73;4.95;;;13.30;99.90;;;;;;5046129;28;20033;-86
2022/10/14 04:21:56;;;;;;;14.23;4.38;;;13.40;99.90;;;;;;5046793;28;20075;-86
2022/10/14 04:24:21;;;;;;;8.52;5.13;;;13.30;99.90;;;;;;5062493;28;20037;-86
2022/10/14 04:26:50;;;;;;;7.55;4.95;;;13.30;99.90;;;;;;5050321;28;20056;-86
2022/10/14 04:29:16;;;;;;;11.73;5.05;;;13.30;99.90;;;;;;5047652;28;20028;-87
2022/10/14 04:31:41;;;;;;;11.10;4.93;;;13.40;99.90;;;;;;5044042;28;20032;-86
2022/10/14 04:34:08;;;;;;;9.32;4.82;;;13.30;99.90;;;;;;5043583;28;20028;-87
2022/10/14 04:36:33;;;;;;;9.75;4.70;;;13.40;99.90;;;;;;5047728;28;20029;-80
2022/10/14 04:38:59;;;;;;;11.05;4.68;;;13.40;99.90;;;;;;5041497;28;20385;-81
2022/10/14 04:41:25;;;;;;;9.57;5.38;;;13.40;99.90;;;;;;5047196;28;20059;-80
2022/10/14 04:43:50;;;;;;;9.02;4.68;;;13.40;99.90;;;;;;5046441;28;20025;-80
2022/10/14 04:46:16;;;;;;;8.75;5.18;;;13.40;99.90;;;;;;5044841;28;20025;-79
2022/10/14 04:48:41;;;;;;;7.95;5.18;;;13.40;99.90;;;;;;5045968;28;20035;-80
2022/10/14 04:51:07;;;;;;;10.10;4.75;;;13.40;99.90;;;;;;5044831;28;20021;-80
2022/10/14 04:53:33;;;;;;;11.15;4.78;;;13.40;99.90;;;;;;5039672;28;20436;-80
2022/10/14 04:55:58;;;;;;;8.98;4.45;;;13.40;99.90;;;;;;5040340;28;20163;-80
2022/10/14 04:58:24;;;;;;;7.47;4.57;;;13.40;99.90;;;;;;5047049;28;20421;-81
2022/10/14 05:00:53;;;;;;;9.48;4.57;;;13.40;99.90;;;;;;5048614;28;20055;-80
2022/10/14 05:03:18;;;;;;;7.93;4.30;;;13.40;99.90;;;;;;5042822;28;20543;-79
2022/10/14 05:05:44;;;;;;;7.43;4.60;;;13.40;99.90;;;;;;5046417;28;20029;-80
2022/10/14 05:08:10;;;;;;;8.13;4.43;;;13.40;99.90;;;;;;5046383;28;20024;-80
2022/10/14 05:10:35;;;;;;;12.48;5.07;;;13.30;99.90;;;;;;5041483;28;20421;-81
2022/10/14 05:13:01;;;;;;;9.25;5.05;;;13.40;99.90;;;;;;5041620;28;20029;-81
2022/10/14 05:15:27;;;;;;;11.25;5.80;;;13.40;99.90;;;;;;5045310;28;20036;-80
2022/10/14 05:17:52;;;;;;;10.30;5.10;;;13.40;99.90;;;;;;5045449;28;20511;-83
2022/10/14 05:20:18;;;;;;;12.68;5.40;;;13.40;99.90;;;;;;5047258;28;20104;-83
2022/10/14 05:22:47;;;;;;;11.10;5.22;;;13.40;99.90;;;;;;5047926;28;20631;-83
2022/10/14 05:25:12;;;;;;;11.43;6.00;;;13.40;99.90;;;;;;5046259;28;20035;-83
2022/10/14 05:27:38;;;;;;;10.32;5.97;;;13.30;99.90;;;;;;5045514;28;20495;-80
2022/10/14 05:30:04;;;;;;;7.53;5.10;;;13.30;99.90;;;;;;5044766;28;20139;-82
2022/10/14 05:32:30;;;;;;;6.53;4.90;;;13.30;99.90;;;;;;5046642;28;20024;-81
2022/10/14 05:34:56;;;;;;;8.02;4.80;;;13.40;99.90;;;;;;5042289;28;20064;-86
2022/10/14 05:37:22;;;;;;;10.95;5.40;;;13.30;99.90;;;;;;5040341;28;20075;-84
2022/10/14 05:39:47;;;;;;;6.70;4.68;;;13.30;99.90;;;;;;5043321;28;20805;-83
2022/10/14 05:42:13;;;;;;;12.45;5.50;;;13.40;99.90;;;;;;5047352;28;20056;-83
2022/10/14 05:44:38;;;;;;;8.93;4.78;;;13.30;99.90;;;;;;5039622;28;20029;-82
2022/10/14 05:47:04;;;;;;;8.70;4.57;;;13.40;99.90;;;;;;5045346;28;20509;-83
2022/10/14 05:49:30;;;;;;;8.70;4.45;;;13.40;99.90;;;;;;5038676;28;20021;-83
2022/10/14 05:51:55;;;;;;;10.20;4.95;;;13.40;99.90;;;;;;5062024;28;20035;-77
2022/10/14 05:54:21;;;;;;;7.60;4.95;;;13.30;99.90;;;;;;5046025;28;20035;-84
2022/10/14 05:56:47;;;;;;;7.10;4.32;;;13.40;99.90;;;;;;5049525;28;20025;-85
2022/10/14 05:59:12;;;;;;;10.63;4.15;;;13.30;99.90;;;;;;5063786;28;20032;-88
2022/10/14 06:01:39;;;;;;;6.68;4.35;;;13.30;99.90;;;;;;5045813;28;20090;-86
2022/10/14 06:04:05;;;;;;;9.45;4.70;;;13.40;99.90;;;;;;5042484;28;20540;-86
2022/10/14 06:06:31;;;;;;;10.43;4.20;;;13.40;99.90;;;;;;5046372;28;20047;-85
2022/10/14 06:08:56;;;;;;;10.70;4.65;;;13.50;99.90;;;;;;5046819;28;20029;-87
2022/10/14 06:11:22;;;;;;;7.38;4.03;;;13.50;99.90;;;;;;5060211;28;20560;-84
2022/10/14 06:13:48;;;;;;;8.20;4.47;;;13.50;99.90;;;;;;5048956;28;20163;-83
2022/10/14 06:16:15;;;;;;;8.27;4.85;;;13.60;99.90;;;;;;5047831;28;20059;-82
2022/10/14 06:18:41;;;;;;;9.32;3.92;;;13.60;99.90;;;;;;5046595;28;20025;-83
2022/10/14 06:21:08;;;;;;;6.13;4.32;;;13.60;99.90;;;;;;5048221;28;20028;-82
2022/10/14 06:23:33;;;;;;;7.55;4.22;;;13.60;99.90;;;;;;5066685;28;20021;-83
2022/10/14 06:26:03;;;;;;;8.32;4.57;;;13.60;99.90;;;;;;5048758;28;20036;-83
2022/10/14 06:28:29;;;;;;;6.05;3.70;;;13.60;99.90;;;;;;5046164;28;20466;-82
2022/10/14 06:30:54;;;;;;;6.15;3.65;;;13.60;99.90;;;;;;5042636;28;20032;-83
2022/10/14 06:33:21;;;;;;;10.48;4.65;;;13.70;99.90;;;;;;5052221;28;20025;-83
2022/10/14 06:35:48;;;;;;;8.68;3.95;;;13.70;99.90;;;;;;5049287;28;20059;-83
2022/10/14 06:38:14;;;;;;;9.32;4.63;;;13.70;99.90;;;;;;5053160;28;20025;-82
2022/10/14 06:40:39;;;;;;;9.32;3.80;;;13.70;99.90;;;;;;5055076;28;20028;-83
2022/10/14 06:43:05;;;;;;;6.90;4.22;;;13.70;99.90;;;;;;5046152;28;20032;-82
2022/10/14 06:45:31;;;;;;;4.35;3.30;;;13.80;99.90;;;;;;5046290;28;20136;-83
2022/10/14 06:47:57;;;;;;;9.10;4.97;;;13.80;99.90;;;;;;5050087;28;20024;-82
2022/10/14 06:50:23;;;;;;;8.02;4.65;;;13.80;99.90;;;;;;5046940;28;20388;-82
2022/10/14 06:52:48;;;;;;;8.15;4.07;;;13.80;99.90;;;;;;5051968;28;20025;-84
2022/10/14 06:55:14;;;;;;;10.63;4.90;;;13.80;99.90;;;;;;5068033;28;20025;-83
2022/10/14 06:57:40;;;;;;;6.80;4.03;;;13.90;99.90;;;;;;5050988;28;20024;-83
2022/10/14 07:00:07;;;;;;;7.30;4.03;;;13.90;99.90;;;;;;5050104;28;20056;-83
2022/10/14 07:02:33;;;;;;;11.38;4.35;;;13.90;99.90;;;;;;5048781;28;20374;-82
2022/10/14 07:04:58;;;;;;;9.23;4.07;;;13.90;99.90;;;;;;5053968;28;20063;-86
2022/10/14 07:07:24;;;;;;;7.60;4.70;;;13.90;99.90;;;;;;5071326;28;20025;-86
2022/10/14 07:09:50;;;;;;;11.63;4.28;;;14.00;99.90;;;;;;5067692;28;20029;-87
2022/10/14 07:12:15;;;;;;;7.78;4.22;;;14.00;99.90;;;;;;5068116;28;20108;-87
2022/10/14 07:14:41;;;;;;;9.02;4.20;;;14.00;99.90;;;;;;5053588;28;20504;-87
2022/10/14 07:17:08;;;;;;;8.85;4.80;;;14.10;99.90;;;;;;5051597;28;20052;-86
2022/10/14 07:19:34;;;;;;;8.93;4.30;;;14.10;99.90;;;;;;5050939;28;20024;-86
2022/10/14 07:22:00;;;;;;;7.10;4.40;;;14.10;99.90;;;;;;5050872;28;20031;-87
2022/10/14 07:24:26;;;;;;;7.97;5.35;;;14.10;99.90;;;;;;5066628;28;20025;-86
2022/10/14 07:26:52;;;;;;;9.25;4.70;;;14.10;99.90;;;;;;5050051;28;20033;-85
2022/10/14 07:29:17;;;;;;;9.15;4.45;;;14.20;99.90;;;;;;5052283;28;20017;-85
2022/10/14 07:31:43;;;;;;;6.88;4.25;;;14.20;99.90;;;;;;5064067;28;20036;-83
2022/10/14 07:34:08;;;;;;;9.38;5.13;;;14.30;99.90;;;;;;5053539;28;20025;-84
2022/10/14 07:36:35;;;;;;;7.70;4.20;;;14.30;99.90;;;;;;5066145;28;20497;-84
2022/10/14 07:39:01;;;;;;;9.70;4.68;;;14.30;99.90;;;;;;5062160;28;20136;-85
2022/10/14 07:41:27;;;;;;;9.43;4.53;;;14.40;99.90;;;;;;5052616;28;20021;-85
2022/10/14 07:43:57;;;;;;;10.40;4.53;;;14.40;99.90;;;;;;5050497;28;20031;-86
2022/10/14 07:46:28;;;;;;;8.30;4.72;;;14.50;99.90;;;;;;5044618;28;20059;-84
2022/10/14 07:49:06;;;;;;;7.50;4.43;;;14.50;99.90;;;;;;5064846;28;20104;-84
2022/10/14 07:51:33;;;;;;;9.73;5.00;;;14.60;99.90;;;;;;5062186;28;20036;-85
2022/10/14 07:54:00;;;;;;;6.35;4.20;;;14.70;99.90;;;;;;5045002;28;20054;-85
2022/10/14 07:56:26;;;;;;;8.10;4.18;;;14.70;99.90;;;;;;5046954;28;20032;-85
2022/10/14 07:58:52;;;;;;;8.98;4.40;;;14.70;99.90;;;;;;5045300;28;20391;-85
2022/10/14 08:01:18;;;;;;;6.55;4.43;;;14.80;99.90;;;;;;5060973;23;20051;-83
2022/10/14 08:03:45;;;;;;;9.40;4.53;;;14.80;99.90;;;;;;5056644;28;20088;-81
2022/10/14 08:06:11;;;;;;;8.48;5.13;;;14.90;99.90;;;;;;5076294;28;20029;-82
2022/10/14 08:08:42;;;;;;;8.73;4.95;;;14.90;99.90;;;;;;5060865;28;20029;-84
2022/10/14 08:11:18;;;;;;;13.43;5.22;;;15.00;99.90;;;;;;5073229;28;20068;-83
2022/10/14 08:13:44;;;;;;;14.70;4.80;;;15.00;99.90;;;;;;5072835;28;20059;-85
2022/10/14 08:16:22;;;;;;;11.10;4.20;;;15.00;99.90;;;;;;5052335;28;20060;-83
2022/10/14 08:19:10;;;;;;;9.15;4.90;;;15.10;99.90;;;;;;5057433;28;20078;-86
2022/10/14 08:21:40;;;;;;;11.30;5.30;;;15.20;99.90;;;;;;5054724;28;20086;-85
2022/10/14 08:24:07;;;;;;;9.70;4.85;;;15.20;99.90;;;;;;5053040;28;20025;-84
2022/10/14 08:26:48;;;;;;;10.20;4.70;;;15.30;99.90;;;;;;5055231;28;20025;-85
2022/10/14 08:29:14;;;;;;;8.07;4.82;;;15.30;99.90;;;;;;5055985;28;20032;-83
2022/10/14 08:31:39;;;;;;;9.07;4.75;;;15.30;99.90;;;;;;5057686;28;20029;-83
2022/10/14 08:34:10;;;;;;;11.02;4.78;;;15.30;99.90;;;;;;5073980;28;20037;-83
2022/10/14 08:36:38;;;;;;;9.05;4.57;;;15.40;99.90;;;;;;5057736;28;20052;-88
2022/10/14 08:39:10;;;;;;;7.82;4.03;;;15.40;99.90;;;;;;5072583;28;20029;-84
2022/10/14 08:41:45;;;;;;;7.60;4.22;;;15.50;99.90;;;;;;5072470;28;20030;-86
2022/10/14 08:44:36;;;;;;;10.32;4.53;;;15.50;99.90;;;;;;5056086;28;20031;-86
2022/10/14 08:47:03;;;;;;;7.45;4.50;;;15.60;99.90;;;;;;5057114;28;20021;-83
2022/10/14 08:50:08;;;;;;;6.60;4.10;;;15.70;99.90;;;;;;5071985;28;20021;-85
2022/10/14 08:53:11;;;;;;;7.18;3.25;;;15.80;99.90;;;;;;5056858;28;20045;-84
2022/10/14 08:55:54;;;;;;;6.30;3.67;;;15.90;99.90;;;;;;4976412;28;20578;-84
2022/10/14 08:58:45;;;;;;;7.80;4.20;;;16.00;99.90;;;;;;5066502;28;21100;-87
2022/10/14 09:01:34;;;;;;;8.95;4.30;;;16.10;99.90;;;;;;5059075;28;20119;-86
2022/10/14 09:04:11;;;;;;;10.52;4.70;;;16.10;99.90;;;;;;5050158;28;20029;-87
2022/10/14 09:06:41;;;;;;;6.90;4.15;;;16.20;99.90;;;;;;5072133;28;20056;-84
2022/10/14 09:09:29;;;;;;;9.25;4.35;;;16.20;99.90;;;;;;5067545;28;20029;-86
2022/10/14 09:12:02;;;;;;;12.07;4.38;;;16.30;99.90;;;;;;5060948;28;20055;-85
2022/10/14 09:14:48;;;;;;;8.52;4.40;;;16.30;99.90;;;;;;5071910;28;20036;-82
2022/10/14 09:17:23;;;;;;;12.00;4.78;;;16.40;99.90;;;;;;5057936;28;20099;-85
2022/10/14 09:20:00;;;;;;;10.43;5.00;;;16.40;99.90;;;;;;5055695;28;20021;-83
2022/10/14 09:22:32;;;;;;;12.57;4.97;;;16.40;99.90;;;;;;5072119;28;20059;-86
2022/10/14 09:24:59;;;;;;;7.43;4.78;;;16.50;99.90;;;;;;5056137;28;20037;-85
2022/10/14 09:27:27;;;;;;;7.97;5.07;;;16.40;99.90;;;;;;5073796;28;20033;-83
2022/10/14 09:29:59;;;;;;;9.82;4.75;;;16.50;99.90;;;;;;5054737;28;20487;-83
2022/10/14 09:32:34;;;;;;;7.72;4.68;;;16.60;99.90;;;;;;5056434;28;20489;-86
2022/10/14 09:35:00;;;;;;;10.48;4.25;;;16.60;99.90;;;;;;5055038;28;20040;-85
2022/10/14 09:37:36;;;;;;;9.48;4.88;;;16.70;99.90;;;;;;5068605;28;20056;-86
2022/10/14 09:40:42;;;;;;;7.10;4.70;;;16.70;99.90;;;;;;5058536;28;20029;-85
2022/10/14 09:43:07;;;;;;;7.70;4.43;;;16.80;99.90;;;;;;4975273;28;20057;-86
2022/10/14 09:46:09;;;;;;;10.95;4.72;;;16.80;99.90;;;;;;5042009;28;20049;-84
2022/10/14 09:49:01;;;;;;;10.30;4.47;;;16.90;99.90;;;;;;5051552;28;20017;-84
2022/10/14 09:51:42;;;;;;;6.63;3.67;;;17.00;99.90;;;;;;5032684;28;20045;-83
2022/10/14 09:54:24;;;;;;;10.70;4.28;;;17.10;99.90;;;;;;5071320;28;20119;-85
2022/10/14 09:56:58;;;;;;;5.50;3.50;;;17.10;99.90;;;;;;5070187;28;20406;-87
2022/10/14 09:59:28;;;;;;;6.47;3.28;;;17.20;99.90;;;;;;5058703;28;20033;-87
2022/10/14 10:01:56;;;;;;;7.28;3.42;;;17.20;99.90;;;;;;5072103;28;20087;-88
2022/10/14 10:04:39;;;;;;;5.18;3.28;;;17.30;99.90;;;;;;5053893;28;20032;-84
2022/10/14 10:07:33;;;;;;;6.60;3.53;;;17.30;99.90;;;;;;5068186;28;20024;-87
2022/10/14 10:10:37;;;;;;;5.50;2.75;;;17.40;99.90;;;;;;5047817;28;20025;-87
2022/10/14 10:13:04;;;;;;;6.28;2.95;;;17.40;99.90;;;;;;5038821;28;20025;-86
2022/10/14 10:15:40;;;;;;;7.90;3.00;;;17.50;99.90;;;;;;5049572;28;20489;-84
2022/10/14 10:18:18;;;;;;;6.78;2.65;;;17.50;99.90;;;;;;5070674;28;20120;-86
2022/10/14 10:21:05;;;;;;;5.93;2.53;;;17.50;99.90;;;;;;5072074;28;20029;-86
2022/10/14 10:23:35;;;;;;;8.23;3.70;;;17.50;99.90;;;;;;5054129;28;20025;-86
2022/10/14 10:26:25;;;;;;;4.57;2.60;;;17.50;99.90;;;;;;5055686;28;20408;-85
2022/10/14 10:29:04;;;;;;;5.90;2.95;;;17.50;99.90;;;;;;5051293;28;20032;-86
2022/10/14 10:31:53;;;;;;;4.13;2.47;;;17.50;99.90;;;;;;5056630;28;20036;-86
2022/10/14 10:34:37;;;;;;;6.78;2.88;;;17.50;99.90;;;;;;5063026;28;20125;-85
2022/10/14 10:37:17;;;;;;;;;;;17.50;99.90;;;;;;5054460;28;20055;-84
2022/10/14 10:40:20;;;;;;;5.03;2.42;;;17.50;99.90;;;;;;5049312;28;19967;-87
2022/10/14 10:43:07;;;;;;;4.57;2.67;;;17.50;99.90;;;;;;5051058;28;20045;-87
2022/10/14 10:45:54;;;;;;;4.25;2.10;;;17.60;99.90;;;;;;5054803;28;20500;-86
2022/10/14 10:48:45;;;;;;;7.78;2.47;;;17.60;99.90;;;;;;5055435;28;20033;-87
2022/10/14 10:51:41;;;;;;;6.43;2.42;;;17.60;99.90;;;;;;5056055;28;20025;-86
2022/10/14 10:54:31;;;;;;;11.10;2.97;;;17.70;99.90;;;;;;5071209;28;20040;-84
2022/10/14 10:57:45;;;;;;;5.80;2.45;;;17.70;99.90;;;;;;5057921;28;20029;-87
2022/10/14 11:00:52;;;;;;;3.83;1.83;;;17.70;99.90;;;;;;5047023;28;20516;-87
2022/10/14 11:03:55;;;;;;;4.93;1.95;;;17.60;99.90;;;;;;5051193;28;20134;-85
2022/10/14 11:13:29;;;;;;;2.72;1.60;;;17.30;99.90;;;;;;5053120;28;20067;-85
2022/10/14 11:16:38;;;;;;;4.88;1.40;;;17.20;99.90;;;;;;5052125;28;20036;-87
2022/10/14 11:19:09;;;;;;;3.55;1.80;;;17.20;99.90;;;;;;5052736;28;20044;-86
2022/10/14 11:21:47;;;;;;;2.75;1.77;;;17.20;99.90;;;;;;5075977;28;20025;-85
2022/10/14 11:24:38;;;;;;;5.60;2.95;;;17.20;99.90;;;;;;5055394;28;20060;-87
2022/10/14 11:27:14;;;;;;;4.53;2.00;;;17.20;99.90;;;;;;5055642;28;20025;-86
2022/10/14 11:30:07;;;;;;;5.38;1.92;;;17.20;99.90;;;;;;5076571;28;20031;-87
2022/10/14 11:32:55;;;;;;;4.55;1.60;;;17.30;99.90;;;;;;5073983;28;20052;-86
2022/10/14 11:35:52;;;;;;;6.32;1.60;;;17.30;99.90;;;;;;5075265;28;20111;-85
2022/10/14 11:38:56;;;;;;;7.60;1.58;;;17.40;99.90;;;;;;5073430;28;20024;-85
2022/10/14 11:42:01;;;;;;;3.30;1.88;;;17.50;99.90;;;;;;5053794;28;20028;-85
2022/10/14 11:44:39;;;;;;;3.50;1.80;;;17.60;99.90;;;;;;5054279;28;20025;-85
2022/10/14 11:47:28;;;;;;;6.40;2.05;;;17.60;99.90;;;;;;5055628;28;20047;-86
2022/10/14 11:50:16;;;;;;;5.72;1.75;;;17.70;99.90;;;;;;5045840;28;20028;-85
2022/10/14 11:53:00;;;;;;;7.10;2.42;;;17.70;99.90;;;;;;5051172;28;20555;-87
2022/10/14 11:55:33;;;;;;;3.50;1.95;;;17.80;99.90;;;;;;5057891;28;20035;-87
2022/10/14 11:58:09;;;;;;;2.37;1.63;;;17.90;99.90;;;;;;5055408;28;20029;-87
2022/10/14 12:00:53;;;;;;;4.85;1.58;;;17.90;99.90;;;;;;5067999;28;20040;-85
2022/10/14 12:03:43;;;;;;;3.90;1.55;;;17.90;99.90;;;;;;5054951;28;20025;-87
2022/10/14 12:06:28;;;;;;;2.58;1.55;;;18.00;99.90;;;;;;5051925;28;20071;-85
2022/10/14 12:09:19;;;;;;;1.85;1.30;;;18.00;99.90;;;;;;5068272;28;20541;-85
2022/10/14 12:12:02;;;;;;;4.75;1.75;;;18.10;99.90;;;;;;5046606;28;20400;-86
2022/10/14 12:14:54;;;;;;;3.03;1.48;;;18.10;99.90;;;;;;5052334;28;20036;-87
2022/10/14 12:17:59;;;;;;;5.15;1.00;;;18.20;99.90;;;;;;5055696;28;20036;-85
2022/10/14 12:20:48;;;;;;;1.83;1.05;;;18.20;99.90;;;;;;5055524;28;20385;-86
2022/10/14 12:23:33;;;;;;;2.67;0.95;;;18.20;99.90;;;;;;5059499;28;20021;-87
2022/10/14 12:26:37;;;;;;;1.35;0.98;;;18.20;99.90;;;;;;5072945;28;20025;-86
2022/10/14 12:29:12;;;;;;;2.17;0.93;;;18.20;99.90;;;;;;5039731;28;20053;-86
2022/10/14 12:31:38;;;;;;;0.88;0.70;;;18.20;99.90;;;;;;5053972;28;20278;-86
2022/10/14 12:34:17;;;;;;;2.10;0.80;;;18.20;99.90;;;;;;5068779;28;20052;-86
2022/10/14 12:36:55;;;;;;;1.10;0.68;;;18.30;99.90;;;;;;5054659;28;20031;-87
2022/10/14 12:39:33;;;;;;;1.20;0.70;;;18.20;99.90;;;;;;5052605;28;20060;-84
2022/10/14 12:42:11;;;;;;;2.90;0.95;;;18.20;99.90;;;;;;5053804;28;20029;-77
2022/10/14 12:44:54;;;;;;;1.23;0.60;;;18.20;99.90;;;;;;5049135;28;20519;-76
2022/10/14 12:47:25;;;;;;;1.45;0.65;;;18.20;99.90;;;;;;5043411;28;20028;-85
2022/10/14 12:50:03;;;;;;;1.65;0.80;;;18.20;99.90;;;;;;5046798;28;20021;-86
2022/10/14 12:52:36;;;;;;;3.20;0.80;;;18.20;99.90;;;;;;5069033;28;20113;-84
2022/10/14 12:55:13;;;;;;;2.42;1.13;;;18.20;99.90;;;;;;5053629;28;20036;-85
2022/10/14 12:58:11;;;;;;;1.88;1.20;;;18.20;99.90;;;;;;5048914;28;20075;-80
2022/10/14 13:00:43;;;;;;;1.83;1.00;;;18.10;99.90;;;;;;5020719;28;20048;-85
2022/10/14 13:03:25;;;;;;;2.90;1.10;;;18.10;99.90;;;;;;5056012;28;20041;-86
2022/10/14 13:06:14;;;;;;;6.13;1.15;;;18.10;99.90;;;;;;5055740;28;20481;-84
2022/10/14 13:08:40;;;;;;;2.33;0.75;;;18.10;99.90;;;;;;5071474;28;20036;-85
2022/10/14 13:11:14;;;;;;;9.65;1.40;;;18.00;99.90;;;;;;5049173;28;20025;-85
2022/10/14 13:13:48;;;;;;;3.72;1.33;;;18.00;99.90;;;;;;5051490;28;20082;-85
2022/10/14 13:16:22;;;;;;;3.63;1.20;;;18.00;99.90;;;;;;5058855;28;20078;-84
2022/10/14 13:18:56;;;;;;;1.83;1.15;;;18.00;99.90;;;;;;5071837;28;20043;-85
2022/10/14 13:21:34;;;;;;;2.22;1.17;;;17.90;99.90;;;;;;5059389;28;20032;-85